createdAt,value
2018-06-16T00:00:40.978Z,20.81
2018-06-16T00:01:40.987Z,20.75
2018-06-16T00:02:41.035Z,20.75
2018-06-16T00:03:40.966Z,20.75
2018-06-16T00:04:40.968Z,20.75
2018-06-16T00:05:40.968Z,20.75
2018-06-16T00:06:40.964Z,20.75
2018-06-16T00:07:40.970Z,20.69
2018-06-16T00:08:40.970Z,20.75
2018-06-16T00:09:41.044Z,20.69
2018-06-16T00:10:41.064Z,20.62
2018-06-16T00:11:41.235Z,20.62
2018-06-16T00:12:41.058Z,20.62
2018-06-16T00:13:41.595Z,20.62
2018-06-16T00:14:41.026Z,20.62
2018-06-16T00:15:41.019Z,20.56
2018-06-16T00:16:41.059Z,20.56
2018-06-16T00:17:41.059Z,20.56
2018-06-16T00:18:41.053Z,20.56
2018-06-16T00:19:41.062Z,20.56
2018-06-16T00:20:41.054Z,20.5
2018-06-16T00:21:41.276Z,20.5
2018-06-16T00:22:41.073Z,20.5
2018-06-16T00:23:41.026Z,20.5
2018-06-16T00:24:40.984Z,20.5
2018-06-16T00:25:41.022Z,20.5
2018-06-16T00:26:40.998Z,20.44
2018-06-16T00:27:41.063Z,20.44
2018-06-16T00:28:41.104Z,20.44
2018-06-16T00:29:40.942Z,20.44
2018-06-16T00:30:41.062Z,20.44
2018-06-16T00:31:41.026Z,20.37
2018-06-16T00:32:41.101Z,20.37
2018-06-16T00:33:41.045Z,20.31
2018-06-16T00:34:41.054Z,20.25
2018-06-16T00:35:40.966Z,20.31
2018-06-16T00:36:40.953Z,20.31
2018-06-16T00:37:41.236Z,20.31
2018-06-16T00:38:41.060Z,20.25
2018-06-16T00:39:41.080Z,20.25
2018-06-16T00:40:41.021Z,20.25
2018-06-16T00:41:41.069Z,20.25
2018-06-16T00:42:41.053Z,20.19
2018-06-16T00:43:41.030Z,20.25
2018-06-16T00:44:41.095Z,20.25
2018-06-16T00:45:40.968Z,20.19
2018-06-16T00:46:41.051Z,20.19
2018-06-16T00:47:41.115Z,20.19
2018-06-16T00:48:41.045Z,20.19
2018-06-16T00:49:40.966Z,20.19
2018-06-16T00:50:40.967Z,20.19
2018-06-16T00:51:41.433Z,20.19
2018-06-16T00:52:40.971Z,20.12
2018-06-16T00:53:41.002Z,20.12
2018-06-16T00:54:40.958Z,20.12
2018-06-16T00:55:41.143Z,20.12
2018-06-16T00:56:40.962Z,20.12
2018-06-16T00:57:41.103Z,20.12
2018-06-16T00:58:41.055Z,20.12
2018-06-16T00:59:40.994Z,20.12
2018-06-16T01:00:41.341Z,20.06
2018-06-16T01:01:41.060Z,20.06
2018-06-16T01:02:41.015Z,20
2018-06-16T01:03:40.946Z,20
2018-06-16T01:04:40.942Z,20
2018-06-16T01:05:41.023Z,20
2018-06-16T01:06:41.010Z,20
2018-06-16T01:07:40.966Z,20
2018-06-16T01:08:40.952Z,20
2018-06-16T01:09:41.017Z,20
2018-06-16T01:10:40.949Z,20
2018-06-16T01:11:40.942Z,20
2018-06-16T01:12:41.005Z,19.94
2018-06-16T01:13:40.991Z,19.94
2018-06-16T01:14:40.933Z,19.94
2018-06-16T01:15:40.960Z,19.94
2018-06-16T01:16:41.019Z,19.94
2018-06-16T01:17:40.954Z,19.94
2018-06-16T01:18:40.961Z,19.94
2018-06-16T01:19:41.028Z,19.94
2018-06-16T01:20:40.977Z,19.94
2018-06-16T01:21:41.064Z,19.87
2018-06-16T01:22:40.961Z,19.87
2018-06-16T01:23:41.091Z,19.94
2018-06-16T01:24:40.925Z,19.94
2018-06-16T01:25:41.024Z,19.87
2018-06-16T01:26:40.921Z,19.94
2018-06-16T01:27:41.134Z,19.94
2018-06-16T01:28:40.904Z,19.87
2018-06-16T01:29:40.944Z,19.94
2018-06-16T01:30:41.075Z,19.94
2018-06-16T01:31:41.082Z,19.94
2018-06-16T01:32:40.961Z,19.94
2018-06-16T01:33:40.939Z,19.94
2018-06-16T01:34:41.105Z,19.94
2018-06-16T01:35:40.944Z,19.94
2018-06-16T01:36:41.175Z,19.94
2018-06-16T01:37:40.988Z,19.94
2018-06-16T01:38:41.006Z,19.94
2018-06-16T01:39:41.045Z,19.94
2018-06-16T01:40:40.938Z,19.94
2018-06-16T01:41:41.065Z,19.94
2018-06-16T01:42:40.994Z,19.94
2018-06-16T01:43:40.919Z,19.94
2018-06-16T01:44:40.966Z,19.94
2018-06-16T01:45:41.103Z,19.87
2018-06-16T01:46:40.944Z,19.87
2018-06-16T01:47:40.971Z,19.81
2018-06-16T01:48:40.959Z,19.81
2018-06-16T01:49:40.912Z,19.75
2018-06-16T01:50:40.919Z,19.81
2018-06-16T01:51:40.939Z,19.69
2018-06-16T01:52:41.021Z,19.75
2018-06-16T01:53:40.931Z,19.62
2018-06-16T01:54:41.094Z,19.62
2018-06-16T01:55:40.968Z,19.56
2018-06-16T01:56:41.077Z,19.56
2018-06-16T01:57:41.039Z,19.56
2018-06-16T01:58:40.897Z,19.56
2018-06-16T01:59:40.979Z,19.56
2018-06-16T02:00:40.921Z,19.56
2018-06-16T02:01:40.949Z,19.56
2018-06-16T02:02:41.130Z,19.62
2018-06-16T02:03:41.007Z,19.62
2018-06-16T02:04:40.938Z,19.62
2018-06-16T02:05:40.966Z,19.62
2018-06-16T02:06:40.942Z,19.69
2018-06-16T02:07:41.172Z,19.62
2018-06-16T02:08:40.947Z,19.69
2018-06-16T02:09:40.912Z,19.69
2018-06-16T02:10:40.989Z,19.69
2018-06-16T02:11:40.938Z,19.69
2018-06-16T02:12:40.935Z,19.69
2018-06-16T02:13:40.951Z,19.75
2018-06-16T02:14:40.939Z,19.69
2018-06-16T02:15:41.015Z,19.69
2018-06-16T02:16:40.919Z,19.75
2018-06-16T02:17:40.951Z,19.75
2018-06-16T02:18:40.904Z,19.75
2018-06-16T02:19:40.923Z,19.75
2018-06-16T02:20:40.917Z,19.75
2018-06-16T02:21:40.905Z,19.75
2018-06-16T02:22:40.912Z,19.75
2018-06-16T02:23:40.909Z,19.75
2018-06-16T02:24:40.895Z,19.75
2018-06-16T02:25:40.894Z,19.75
2018-06-16T02:26:40.934Z,19.81
2018-06-16T02:27:40.947Z,19.75
2018-06-16T02:28:40.904Z,19.75
2018-06-16T02:29:40.926Z,19.81
2018-06-16T02:30:40.934Z,19.81
2018-06-16T02:31:40.909Z,19.81
2018-06-16T02:32:40.935Z,19.81
2018-06-16T02:33:40.951Z,19.81
2018-06-16T02:34:40.939Z,19.81
2018-06-16T02:35:40.927Z,19.81
2018-06-16T02:36:40.921Z,19.81
2018-06-16T02:37:40.927Z,19.81
2018-06-16T02:38:41.489Z,19.81
2018-06-16T02:39:41.056Z,19.81
2018-06-16T02:40:41.048Z,19.75
2018-06-16T02:41:40.898Z,19.75
2018-06-16T02:42:40.935Z,19.75
2018-06-16T02:43:40.953Z,19.75
2018-06-16T02:44:40.902Z,19.75
2018-06-16T02:45:40.939Z,19.75
2018-06-16T02:46:41.000Z,19.75
2018-06-16T02:47:40.939Z,19.75
2018-06-16T02:48:41.043Z,19.75
2018-06-16T02:49:40.894Z,19.75
2018-06-16T02:50:40.923Z,19.75
2018-06-16T02:51:41.814Z,19.69
2018-06-16T02:52:41.077Z,19.75
2018-06-16T02:53:41.316Z,19.75
2018-06-16T02:54:41.196Z,19.75
2018-06-16T02:55:40.892Z,19.69
2018-06-16T02:56:40.920Z,19.69
2018-06-16T02:57:40.940Z,19.69
2018-06-16T02:58:40.926Z,19.69
2018-06-16T02:59:40.913Z,19.62
2018-06-16T03:00:40.912Z,19.62
2018-06-16T03:01:40.976Z,19.62
2018-06-16T03:02:40.932Z,19.62
2018-06-16T03:03:40.933Z,19.62
2018-06-16T03:04:40.928Z,19.62
2018-06-16T03:05:40.923Z,19.56
2018-06-16T03:06:40.904Z,19.62
2018-06-16T03:07:40.938Z,19.56
2018-06-16T03:08:40.954Z,19.56
2018-06-16T03:09:40.942Z,19.56
2018-06-16T03:10:41.345Z,19.56
2018-06-16T03:11:40.955Z,19.56
2018-06-16T03:12:40.921Z,19.56
2018-06-16T03:13:40.897Z,19.56
2018-06-16T03:14:40.917Z,19.56
2018-06-16T03:15:40.920Z,19.56
2018-06-16T03:16:40.921Z,19.5
2018-06-16T03:17:40.917Z,19.5
2018-06-16T03:18:41.066Z,19.5
2018-06-16T03:19:40.924Z,19.5
2018-06-16T03:20:40.894Z,19.5
2018-06-16T03:21:40.899Z,19.5
2018-06-16T03:22:40.901Z,19.5
2018-06-16T03:23:40.881Z,19.5
2018-06-16T03:24:40.883Z,19.5
2018-06-16T03:25:40.938Z,19.5
2018-06-16T03:26:40.948Z,19.5
2018-06-16T03:27:40.936Z,19.5
2018-06-16T03:28:40.897Z,19.5
2018-06-16T03:29:40.957Z,19.5
2018-06-16T03:30:40.917Z,19.5
2018-06-16T03:31:40.917Z,19.5
2018-06-16T03:32:40.911Z,19.5
2018-06-16T03:33:40.927Z,19.5
2018-06-16T03:34:40.945Z,19.5
2018-06-16T03:35:40.882Z,19.5
2018-06-16T03:36:40.912Z,19.5
2018-06-16T03:37:40.893Z,19.5
2018-06-16T03:38:40.873Z,19.5
2018-06-16T03:39:40.875Z,19.5
2018-06-16T03:40:40.950Z,19.5
2018-06-16T03:41:40.917Z,19.5
2018-06-16T03:42:40.890Z,19.44
2018-06-16T03:43:40.922Z,19.44
2018-06-16T03:44:40.872Z,19.44
2018-06-16T03:45:40.883Z,19.44
2018-06-16T03:46:40.908Z,19.44
2018-06-16T03:47:40.882Z,19.44
2018-06-16T03:48:40.905Z,19.44
2018-06-16T03:49:40.882Z,19.5
2018-06-16T03:50:40.881Z,19.44
2018-06-16T03:51:40.930Z,19.44
2018-06-16T03:52:40.883Z,19.44
2018-06-16T03:53:40.898Z,19.5
2018-06-16T03:54:40.883Z,19.5
2018-06-16T03:55:40.939Z,19.44
2018-06-16T03:56:40.882Z,19.44
2018-06-16T03:57:40.886Z,19.5
2018-06-16T03:58:40.943Z,19.5
2018-06-16T03:59:40.893Z,19.5
2018-06-16T04:00:41.032Z,19.5
2018-06-16T04:01:40.933Z,19.5
2018-06-16T04:02:41.304Z,19.5
2018-06-16T04:03:41.035Z,19.5
2018-06-16T04:04:41.139Z,19.5
2018-06-16T04:05:40.874Z,19.56
2018-06-16T04:06:40.923Z,19.5
2018-06-16T04:07:40.871Z,19.56
2018-06-16T04:08:40.920Z,19.56
2018-06-16T04:09:41.060Z,19.5
2018-06-16T04:10:40.954Z,19.5
2018-06-16T04:11:40.891Z,19.5
2018-06-16T04:12:40.936Z,19.5
2018-06-16T04:13:41.056Z,19.56
2018-06-16T04:14:40.952Z,19.5
2018-06-16T04:15:41.019Z,19.56
2018-06-16T04:16:40.900Z,19.56
2018-06-16T04:17:41.203Z,19.56
2018-06-16T04:18:41.238Z,19.56
2018-06-16T04:19:41.151Z,19.56
2018-06-16T04:20:44.883Z,19.56
2018-06-16T04:21:40.933Z,19.56
2018-06-16T04:22:40.897Z,19.5
2018-06-16T04:23:40.876Z,19.56
2018-06-16T04:24:41.069Z,19.5
2018-06-16T04:25:40.884Z,19.5
2018-06-16T04:26:40.913Z,19.56
2018-06-16T04:27:40.889Z,19.5
2018-06-16T04:28:40.991Z,19.56
2018-06-16T04:29:40.876Z,19.56
2018-06-16T04:30:40.846Z,19.56
2018-06-16T04:31:40.892Z,19.56
2018-06-16T04:32:40.915Z,19.56
2018-06-16T04:33:41.007Z,19.56
2018-06-16T04:34:41.172Z,19.56
2018-06-16T04:35:40.909Z,19.62
2018-06-16T04:36:40.888Z,19.62
2018-06-16T04:37:40.931Z,19.62
2018-06-16T04:38:40.915Z,19.56
2018-06-16T04:39:41.025Z,19.62
2018-06-16T04:40:40.867Z,19.62
2018-06-16T04:41:40.860Z,19.62
2018-06-16T04:42:40.913Z,19.62
2018-06-16T04:43:40.899Z,19.62
2018-06-16T04:44:40.876Z,19.62
2018-06-16T04:45:42.188Z,19.62
2018-06-16T04:46:40.882Z,19.62
2018-06-16T04:47:40.884Z,19.69
2018-06-16T04:48:40.877Z,19.69
2018-06-16T04:49:40.886Z,19.69
2018-06-16T04:50:41.103Z,19.62
2018-06-16T04:51:40.870Z,19.69
2018-06-16T04:52:40.852Z,19.69
2018-06-16T04:53:40.928Z,19.62
2018-06-16T04:54:40.878Z,19.69
2018-06-16T04:55:40.878Z,19.69
2018-06-16T04:56:40.868Z,19.62
2018-06-16T04:57:40.909Z,19.69
2018-06-16T04:58:40.845Z,19.69
2018-06-16T04:59:40.863Z,19.62
2018-06-16T05:00:40.878Z,19.69
2018-06-16T05:01:40.854Z,19.62
2018-06-16T05:02:40.852Z,19.62
2018-06-16T05:03:40.850Z,19.69
2018-06-16T05:04:40.853Z,19.69
2018-06-16T05:05:40.872Z,19.69
2018-06-16T05:06:40.854Z,19.69
2018-06-16T05:07:40.878Z,19.62
2018-06-16T05:08:41.264Z,19.69
2018-06-16T05:09:40.875Z,19.69
2018-06-16T05:10:40.897Z,19.62
2018-06-16T05:11:41.065Z,19.69
2018-06-16T05:12:41.892Z,19.69
2018-06-16T05:13:41.106Z,19.69
2018-06-16T05:14:40.871Z,19.69
2018-06-16T05:15:40.888Z,19.69
2018-06-16T05:16:40.884Z,19.69
2018-06-16T05:17:40.877Z,19.69
2018-06-16T05:18:40.907Z,19.62
2018-06-16T05:19:41.293Z,19.69
2018-06-16T05:20:40.985Z,19.69
2018-06-16T05:21:40.919Z,19.69
2018-06-16T05:22:41.097Z,19.69
2018-06-16T05:23:40.850Z,19.69
2018-06-16T05:24:40.961Z,19.69
2018-06-16T05:25:41.492Z,19.75
2018-06-16T05:26:40.861Z,19.69
2018-06-16T05:27:41.079Z,19.75
2018-06-16T05:28:40.886Z,19.75
2018-06-16T05:29:41.032Z,19.75
2018-06-16T05:30:40.889Z,19.75
2018-06-16T05:31:40.868Z,19.75
2018-06-16T05:32:40.882Z,19.75
2018-06-16T05:33:40.879Z,19.75
2018-06-16T05:34:40.840Z,19.81
2018-06-16T05:35:40.895Z,19.81
2018-06-16T05:36:40.938Z,19.75
2018-06-16T05:37:40.917Z,19.81
2018-06-16T05:38:40.852Z,19.81
2018-06-16T05:39:40.859Z,19.81
2018-06-16T05:40:40.854Z,19.81
2018-06-16T05:41:40.883Z,19.81
2018-06-16T05:42:41.100Z,19.81
2018-06-16T05:43:40.874Z,19.81
2018-06-16T05:44:40.938Z,19.87
2018-06-16T05:45:40.868Z,19.87
2018-06-16T05:46:41.038Z,19.87
2018-06-16T05:47:41.090Z,19.87
2018-06-16T05:48:40.854Z,19.87
2018-06-16T05:49:41.086Z,19.87
2018-06-16T05:50:40.971Z,19.94
2018-06-16T05:51:40.962Z,19.94
2018-06-16T05:52:41.038Z,19.94
2018-06-16T05:53:40.945Z,19.94
2018-06-16T05:54:40.908Z,19.94
2018-06-16T05:55:40.884Z,19.94
2018-06-16T05:56:41.032Z,19.94
2018-06-16T05:57:41.117Z,19.87
2018-06-16T05:58:40.874Z,19.94
2018-06-16T05:59:41.133Z,19.94
2018-06-16T06:00:40.898Z,19.87
2018-06-16T06:01:40.901Z,19.94
2018-06-16T06:02:40.948Z,19.87
2018-06-16T06:03:40.852Z,19.87
2018-06-16T06:04:41.004Z,19.94
2018-06-16T06:05:40.890Z,19.94
2018-06-16T06:06:40.901Z,19.94
2018-06-16T06:07:40.852Z,19.94
2018-06-16T06:08:40.892Z,19.94
2018-06-16T06:09:40.818Z,19.94
2018-06-16T06:10:40.842Z,19.94
2018-06-16T06:11:40.882Z,19.94
2018-06-16T06:12:40.831Z,19.94
2018-06-16T06:13:40.812Z,19.94
2018-06-16T06:14:40.885Z,19.94
2018-06-16T06:15:41.845Z,19.94
2018-06-16T06:16:40.838Z,19.94
2018-06-16T06:17:40.858Z,20
2018-06-16T06:18:40.851Z,19.94
2018-06-16T06:19:40.997Z,20
2018-06-16T06:20:40.907Z,20
2018-06-16T06:21:40.839Z,20
2018-06-16T06:22:41.132Z,20
2018-06-16T06:23:40.872Z,20
2018-06-16T06:24:41.016Z,20
2018-06-16T06:25:40.875Z,20
2018-06-16T06:26:40.822Z,20
2018-06-16T06:27:40.871Z,20.06
2018-06-16T06:28:42.285Z,20.06
2018-06-16T06:29:40.910Z,20.06
2018-06-16T06:30:40.994Z,20.12
2018-06-16T06:31:40.891Z,20.12
2018-06-16T06:32:41.058Z,20.06
2018-06-16T06:33:40.927Z,20.12
2018-06-16T06:34:41.009Z,20.12
2018-06-16T06:35:40.856Z,20.12
2018-06-16T06:36:40.864Z,20.12
2018-06-16T06:37:41.466Z,20.19
2018-06-16T06:38:41.065Z,20.19
2018-06-16T06:39:40.828Z,20.19
2018-06-16T06:40:40.847Z,20.19
2018-06-16T06:41:40.864Z,20.19
2018-06-16T06:42:40.813Z,20.12
2018-06-16T06:43:40.860Z,20.12
2018-06-16T06:44:40.905Z,20.19
2018-06-16T06:45:40.851Z,20.19
2018-06-16T06:46:40.809Z,20.19
2018-06-16T06:47:40.860Z,20.19
2018-06-16T06:48:40.840Z,20.19
2018-06-16T06:49:40.835Z,20.19
2018-06-16T06:50:41.081Z,20.25
2018-06-16T06:51:41.128Z,20.25
2018-06-16T06:52:40.809Z,20.25
2018-06-16T06:53:40.854Z,20.25
2018-06-16T06:54:40.964Z,20.31
2018-06-16T06:55:40.847Z,20.31
2018-06-16T06:56:40.817Z,20.31
2018-06-16T06:57:40.933Z,20.31
2018-06-16T06:58:40.864Z,20.31
2018-06-16T06:59:40.809Z,20.37
2018-06-16T07:00:40.927Z,20.37
2018-06-16T07:01:40.806Z,20.31
2018-06-16T07:02:40.817Z,20.31
2018-06-16T07:03:40.869Z,20.31
2018-06-16T07:04:40.816Z,20.31
2018-06-16T07:05:41.006Z,20.31
2018-06-16T07:06:40.823Z,20.37
2018-06-16T07:07:40.882Z,20.37
2018-06-16T07:08:40.870Z,20.37
2018-06-16T07:09:40.869Z,20.37
2018-06-16T07:10:42.048Z,20.37
2018-06-16T07:11:40.855Z,20.44
2018-06-16T07:12:40.800Z,20.44
2018-06-16T07:13:40.799Z,20.44
2018-06-16T07:14:40.857Z,20.5
2018-06-16T07:15:40.847Z,20.44
2018-06-16T07:16:40.822Z,20.5
2018-06-16T07:17:40.868Z,20.5
2018-06-16T07:18:40.792Z,20.5
2018-06-16T07:19:40.860Z,20.56
2018-06-16T07:20:40.841Z,20.5
2018-06-16T07:21:40.830Z,20.56
2018-06-16T07:22:40.794Z,20.62
2018-06-16T07:23:40.865Z,20.62
2018-06-16T07:24:40.799Z,20.62
2018-06-16T07:25:40.834Z,20.62
2018-06-16T07:26:40.830Z,20.69
2018-06-16T07:27:40.803Z,20.69
2018-06-16T07:28:40.840Z,20.69
2018-06-16T07:29:40.856Z,20.75
2018-06-16T07:30:40.995Z,20.75
2018-06-16T07:31:40.823Z,20.75
2018-06-16T07:32:40.840Z,20.75
2018-06-16T07:33:45.379Z,20.75
2018-06-16T07:34:40.850Z,20.75
2018-06-16T07:35:40.773Z,20.81
2018-06-16T07:36:40.815Z,20.75
2018-06-16T07:37:40.825Z,20.88
2018-06-16T07:38:40.824Z,20.81
2018-06-16T07:39:40.791Z,20.88
2018-06-16T07:40:40.785Z,20.81
2018-06-16T07:41:40.803Z,20.88
2018-06-16T07:42:40.872Z,20.81
2018-06-16T07:43:42.376Z,20.81
2018-06-16T07:44:41.989Z,20.81
2018-06-16T07:45:40.794Z,20.81
2018-06-16T07:46:40.813Z,20.88
2018-06-16T07:47:40.817Z,20.81
2018-06-16T07:48:41.051Z,20.94
2018-06-16T07:49:40.788Z,20.94
2018-06-16T07:50:40.817Z,20.94
2018-06-16T07:51:40.795Z,21
2018-06-16T07:52:40.828Z,21
2018-06-16T07:53:40.882Z,21
2018-06-16T07:54:40.785Z,21.06
2018-06-16T07:55:40.837Z,21.06
2018-06-16T07:56:41.175Z,21.06
2018-06-16T07:57:40.807Z,21.06
2018-06-16T07:58:40.819Z,21.06
2018-06-16T07:59:40.831Z,21.12
2018-06-16T08:00:41.099Z,21.12
2018-06-16T08:01:40.837Z,21.12
2018-06-16T08:02:41.123Z,21.19
2018-06-16T08:03:40.819Z,21.25
2018-06-16T08:04:40.855Z,21.31
2018-06-16T08:05:40.955Z,21.31
2018-06-16T08:06:40.837Z,21.31
2018-06-16T08:07:40.852Z,21.37
2018-06-16T08:08:40.795Z,21.37
2018-06-16T08:09:40.791Z,21.37
2018-06-16T08:10:40.802Z,21.44
2018-06-16T08:11:40.840Z,21.44
2018-06-16T08:12:41.159Z,21.5
2018-06-16T08:13:40.794Z,21.5
2018-06-16T08:14:40.820Z,21.5
2018-06-16T08:15:40.942Z,21.5
2018-06-16T08:16:40.803Z,21.5
2018-06-16T08:17:40.793Z,21.37
2018-06-16T08:18:40.816Z,21.31
2018-06-16T08:19:40.794Z,21.31
2018-06-16T08:20:40.858Z,21.37
2018-06-16T08:21:40.801Z,21.44
2018-06-16T08:22:40.781Z,21.44
2018-06-16T08:23:40.836Z,21.56
2018-06-16T08:24:41.589Z,21.56
2018-06-16T08:25:40.817Z,21.62
2018-06-16T08:26:40.826Z,21.69
2018-06-16T08:27:40.852Z,21.75
2018-06-16T08:28:40.824Z,21.81
2018-06-16T08:29:40.824Z,21.87
2018-06-16T08:30:40.851Z,21.94
2018-06-16T08:31:40.846Z,22
2018-06-16T08:32:40.776Z,22.06
2018-06-16T08:33:40.793Z,22.13
2018-06-16T08:34:41.121Z,22.13
2018-06-16T08:35:40.814Z,22.19
2018-06-16T08:36:40.788Z,22.19
2018-06-16T08:37:40.808Z,22.19
2018-06-16T08:38:40.810Z,22.19
2018-06-16T08:39:40.835Z,22.19
2018-06-16T08:40:40.827Z,22.06
2018-06-16T08:41:40.812Z,22.06
2018-06-16T08:42:40.875Z,22.13
2018-06-16T08:43:40.940Z,22.19
2018-06-16T08:44:40.909Z,22.19
2018-06-16T08:45:40.955Z,22.31
2018-06-16T08:46:41.002Z,22.37
2018-06-16T08:47:40.987Z,22.44
2018-06-16T08:48:41.198Z,22.5
2018-06-16T08:49:40.994Z,22.5
2018-06-16T08:50:40.849Z,22.62
2018-06-16T08:51:40.944Z,22.69
2018-06-16T08:52:40.877Z,22.75
2018-06-16T08:53:40.824Z,22.75
2018-06-16T08:54:40.899Z,22.81
2018-06-16T08:55:41.490Z,22.75
2018-06-16T08:56:40.863Z,22.75
2018-06-16T08:57:41.021Z,22.75
2018-06-16T08:58:40.881Z,22.75
2018-06-16T08:59:40.865Z,22.87
2018-06-16T09:00:40.837Z,22.81
2018-06-16T09:01:40.801Z,22.87
2018-06-16T09:02:40.813Z,23
2018-06-16T09:03:40.798Z,22.94
2018-06-16T09:04:40.794Z,23.06
2018-06-16T09:05:40.774Z,23.06
2018-06-16T09:06:40.836Z,23.12
2018-06-16T09:07:40.812Z,23.12
2018-06-16T09:08:40.762Z,23.12
2018-06-16T09:09:40.768Z,23.12
2018-06-16T09:10:40.804Z,23.19
2018-06-16T09:11:41.044Z,23.19
2018-06-16T09:12:40.905Z,23.19
2018-06-16T09:13:40.801Z,23.19
2018-06-16T09:14:40.788Z,23.19
2018-06-16T09:15:40.790Z,23.25
2018-06-16T09:16:40.889Z,23.31
2018-06-16T09:17:40.812Z,23.31
2018-06-16T09:18:40.833Z,23.38
2018-06-16T09:19:40.832Z,23.38
2018-06-16T09:20:40.771Z,23.5
2018-06-16T09:21:40.794Z,23.5
2018-06-16T09:22:41.258Z,23.5
2018-06-16T09:23:40.882Z,23.56
2018-06-16T09:24:40.795Z,23.62
2018-06-16T09:25:40.906Z,23.62
2018-06-16T09:26:40.809Z,23.69
2018-06-16T09:27:40.778Z,23.69
2018-06-16T09:28:40.831Z,23.69
2018-06-16T09:29:40.846Z,23.75
2018-06-16T09:30:40.809Z,23.75
2018-06-16T09:31:41.279Z,23.75
2018-06-16T09:32:40.911Z,23.81
2018-06-16T09:33:40.763Z,23.81
2018-06-16T09:34:40.762Z,23.81
2018-06-16T09:35:40.789Z,23.87
2018-06-16T09:36:40.757Z,23.94
2018-06-16T09:37:40.774Z,23.94
2018-06-16T09:38:40.798Z,23.94
2018-06-16T09:39:40.875Z,23.94
2018-06-16T09:40:40.817Z,23.94
2018-06-16T09:41:40.751Z,24
2018-06-16T09:42:40.778Z,24
2018-06-16T09:43:40.757Z,24
2018-06-16T09:44:40.893Z,24
2018-06-16T09:45:40.889Z,24.06
2018-06-16T09:46:40.863Z,24.06
2018-06-16T09:47:40.911Z,24
2018-06-16T09:48:40.896Z,23.94
2018-06-16T09:49:40.896Z,23.87
2018-06-16T09:50:40.886Z,23.87
2018-06-16T09:51:40.945Z,23.87
2018-06-16T09:52:41.630Z,23.94
2018-06-16T09:53:40.738Z,23.94
2018-06-16T09:54:40.774Z,23.94
2018-06-16T09:55:40.776Z,24
2018-06-16T09:56:40.884Z,24.06
2018-06-16T09:57:40.738Z,24.12
2018-06-16T09:58:40.756Z,24.12
2018-06-16T09:59:40.788Z,24.19
2018-06-16T10:00:40.786Z,24.25
2018-06-16T10:01:40.802Z,24.25
2018-06-16T10:02:40.764Z,24.31
2018-06-16T10:03:40.772Z,24.44
2018-06-16T10:04:40.764Z,24.44
2018-06-16T10:05:40.805Z,24.44
2018-06-16T10:06:40.773Z,24.5
2018-06-16T10:07:40.995Z,24.56
2018-06-16T10:08:43.823Z,24.56
2018-06-16T10:09:42.219Z,24.63
2018-06-16T10:10:41.421Z,24.63
2018-06-16T10:11:43.517Z,24.69
2018-06-16T10:12:40.805Z,24.69
2018-06-16T10:13:40.744Z,24.69
2018-06-16T10:14:40.770Z,24.69
2018-06-16T10:15:41.634Z,24.69
2018-06-16T10:16:42.562Z,24.63
2018-06-16T10:17:41.297Z,24.56
2018-06-16T10:18:40.958Z,24.5
2018-06-16T10:19:40.768Z,24.44
2018-06-16T10:20:42.059Z,24.44
2018-06-16T10:21:40.785Z,24.44
2018-06-16T10:22:40.863Z,24.5
2018-06-16T10:23:40.812Z,24.5
2018-06-16T10:24:40.777Z,24.5
2018-06-16T10:25:40.880Z,24.5
2018-06-16T10:26:40.928Z,24.44
2018-06-16T10:27:40.862Z,24.44
2018-06-16T10:28:40.754Z,24.44
2018-06-16T10:29:40.775Z,24.44
2018-06-16T10:30:41.872Z,24.37
2018-06-16T10:31:41.213Z,24.31
2018-06-16T10:32:40.923Z,24.31
2018-06-16T10:33:40.887Z,24.25
2018-06-16T10:34:40.893Z,24.31
2018-06-16T10:35:40.897Z,24.37
2018-06-16T10:36:40.948Z,24.37
2018-06-16T10:37:40.768Z,24.5
2018-06-16T10:38:40.775Z,24.56
2018-06-16T10:39:40.772Z,24.56
2018-06-16T10:40:40.839Z,24.63
2018-06-16T10:41:40.807Z,24.63
2018-06-16T10:42:40.785Z,24.56
2018-06-16T10:43:40.878Z,24.56
2018-06-16T10:44:40.838Z,24.63
2018-06-16T10:45:40.914Z,24.56
2018-06-16T10:46:40.852Z,24.56
2018-06-16T10:47:40.778Z,24.63
2018-06-16T10:48:40.887Z,24.63
2018-06-16T10:49:40.813Z,24.63
2018-06-16T10:50:40.821Z,24.69
2018-06-16T10:51:40.819Z,24.75
2018-06-16T10:52:40.770Z,24.75
2018-06-16T10:53:40.795Z,24.81
2018-06-16T10:54:40.785Z,24.81
2018-06-16T10:55:40.798Z,24.87
2018-06-16T10:56:40.821Z,24.81
2018-06-16T10:57:40.801Z,24.87
2018-06-16T10:58:40.784Z,24.87
2018-06-16T10:59:40.819Z,24.94
2018-06-16T11:00:40.799Z,25
2018-06-16T11:01:40.907Z,24.94
2018-06-16T11:02:40.789Z,24.94
2018-06-16T11:03:40.807Z,25
2018-06-16T11:04:40.824Z,25
2018-06-16T11:05:40.839Z,25
2018-06-16T11:06:40.858Z,25
2018-06-16T11:07:40.805Z,25.06
2018-06-16T11:08:40.895Z,25.06
2018-06-16T11:09:40.795Z,25.12
2018-06-16T11:10:40.863Z,25.12
2018-06-16T11:11:41.052Z,25.19
2018-06-16T11:12:40.848Z,25.19
2018-06-16T11:13:40.824Z,25.25
2018-06-16T11:14:40.808Z,25.25
2018-06-16T11:15:41.001Z,25.31
2018-06-16T11:16:40.812Z,25.31
2018-06-16T11:17:40.836Z,25.31
2018-06-16T11:18:40.835Z,25.25
2018-06-16T11:19:40.864Z,25.19
2018-06-16T11:20:40.820Z,25.31
2018-06-16T11:21:40.957Z,25.31
2018-06-16T11:22:40.834Z,25.25
2018-06-16T11:23:40.892Z,25.31
2018-06-16T11:24:40.838Z,25.31
2018-06-16T11:25:40.812Z,25.31
2018-06-16T11:26:41.211Z,25.37
2018-06-16T11:27:41.042Z,25.31
2018-06-16T11:28:41.025Z,25.37
2018-06-16T11:29:40.867Z,25.37
2018-06-16T11:30:41.039Z,25.37
2018-06-16T11:31:40.918Z,25.44
2018-06-16T11:32:40.868Z,25.5
2018-06-16T11:33:41.017Z,25.5
2018-06-16T11:34:41.033Z,25.5
2018-06-16T11:35:41.025Z,25.56
2018-06-16T11:36:41.021Z,25.56
2018-06-16T11:37:40.876Z,25.62
2018-06-16T11:38:41.049Z,25.69
2018-06-16T11:39:42.007Z,25.69
2018-06-16T11:40:40.870Z,25.69
2018-06-16T11:41:40.965Z,25.75
2018-06-16T11:42:40.863Z,25.75
2018-06-16T11:43:41.081Z,25.75
2018-06-16T11:44:41.079Z,25.81
2018-06-16T11:45:40.905Z,25.81
2018-06-16T11:46:40.989Z,25.88
2018-06-16T11:47:40.861Z,25.88
2018-06-16T11:48:41.384Z,25.88
2018-06-16T11:49:41.112Z,25.88
2018-06-16T11:50:40.865Z,25.88
2018-06-16T11:51:41.027Z,25.88
2018-06-16T11:52:40.876Z,25.81
2018-06-16T11:53:41.133Z,25.75
2018-06-16T11:54:41.040Z,25.75
2018-06-16T11:55:41.051Z,25.75
2018-06-16T11:56:41.161Z,25.81
2018-06-16T11:57:41.387Z,25.88
2018-06-16T11:58:41.092Z,25.81
2018-06-16T11:59:40.973Z,25.75
2018-06-16T12:00:41.106Z,25.75
2018-06-16T12:01:40.896Z,25.81
2018-06-16T12:02:40.885Z,25.88
2018-06-16T12:03:41.012Z,25.88
2018-06-16T12:04:41.015Z,25.94
2018-06-16T12:05:40.862Z,25.88
2018-06-16T12:06:40.877Z,25.94
2018-06-16T12:07:40.897Z,25.94
2018-06-16T12:08:41.054Z,26
2018-06-16T12:09:41.058Z,26.06
2018-06-16T12:10:40.868Z,26.06
2018-06-16T12:11:40.911Z,26.12
2018-06-16T12:12:40.903Z,26.12
2018-06-16T12:13:41.035Z,26.19
2018-06-16T12:14:40.915Z,26.19
2018-06-16T12:15:40.892Z,26.25
2018-06-16T12:16:40.929Z,26.25
2018-06-16T12:17:40.932Z,26.25
2018-06-16T12:18:41.065Z,26.31
2018-06-16T12:19:41.028Z,26.31
2018-06-16T12:20:40.880Z,26.37
2018-06-16T12:21:40.901Z,26.37
2018-06-16T12:22:40.881Z,26.37
2018-06-16T12:23:41.038Z,26.37
2018-06-16T12:24:41.058Z,26.37
2018-06-16T12:25:41.066Z,26.44
2018-06-16T12:26:40.959Z,26.44
2018-06-16T12:27:41.098Z,26.5
2018-06-16T12:28:41.089Z,26.5
2018-06-16T12:29:43.602Z,26.5
2018-06-16T12:30:40.976Z,26.5
2018-06-16T12:31:41.031Z,26.5
2018-06-16T12:32:41.121Z,26.5
2018-06-16T12:33:41.008Z,26.5
2018-06-16T12:34:40.939Z,26.5
2018-06-16T12:35:41.111Z,26.44
2018-06-16T12:36:40.962Z,26.37
2018-06-16T12:37:40.942Z,26.31
2018-06-16T12:38:41.155Z,26.25
2018-06-16T12:39:40.921Z,26.19
2018-06-16T12:40:40.908Z,26.06
2018-06-16T12:41:40.902Z,26
2018-06-16T12:42:40.960Z,26
2018-06-16T12:43:42.110Z,26
2018-06-16T12:44:42.593Z,26
2018-06-16T12:45:40.936Z,26.06
2018-06-16T12:46:41.008Z,26.06
2018-06-16T12:47:40.932Z,26.12
2018-06-16T12:48:41.007Z,26.12
2018-06-16T12:49:41.099Z,26.06
2018-06-16T12:50:40.956Z,26.12
2018-06-16T12:51:40.943Z,26.19
2018-06-16T12:52:41.108Z,26.25
2018-06-16T12:53:41.144Z,26.31
2018-06-16T12:54:41.096Z,26.37
2018-06-16T12:55:41.030Z,26.44
2018-06-16T12:56:41.599Z,26.44
2018-06-16T12:57:41.332Z,26.5
2018-06-16T12:58:41.077Z,26.56
2018-06-16T12:59:41.042Z,26.56